sensor_id;sensor_type;location;lat;lon;timestamp;temperature;humidity
40053;DHT22;25758;48.200;16.338;2023-02-12T00:00:39;6.30;99.90
40053;DHT22;25758;48.200;16.338;2023-02-12T00:03:05;6.30;99.90
40053;DHT22;25758;48.200;16.338;2023-02-12T00:05:31;6.30;99.90
40053;DHT22;25758;48.200;16.338;2023-02-12T00:07:57;6.30;99.90
40053;DHT22;25758;48.200;16.338;2023-02-12T00:10:23;6.30;99.90
40053;DHT22;25758;48.200;16.338;2023-02-12T00:12:49;6.30;99.90
40053;DHT22;25758;48.200;16.338;2023-02-12T00:15:14;6.20;99.90
40053;DHT22;25758;48.200;16.338;2023-02-12T00:17:40;6.20;99.90
40053;DHT22;25758;48.200;16.338;2023-02-12T00:20:06;6.30;99.90
40053;DHT22;25758;48.200;16.338;2023-02-12T00:22:32;6.30;99.90
40053;DHT22;25758;48.200;16.338;2023-02-12T00:24:58;6.30;99.90
40053;DHT22;25758;48.200;16.338;2023-02-12T00:27:24;6.30;99.90
40053;DHT22;25758;48.200;16.338;2023-02-12T00:29:50;6.30;99.90
40053;DHT22;25758;48.200;16.338;2023-02-12T00:32:16;6.30;99.90
40053;DHT22;25758;48.200;16.338;2023-02-12T00:34:45;6.30;99.90
40053;DHT22;25758;48.200;16.338;2023-02-12T00:37:11;6.30;99.90
40053;DHT22;25758;48.200;16.338;2023-02-12T00:39:37;6.30;99.90
40053;DHT22;25758;48.200;16.338;2023-02-12T00:42:03;6.30;99.90
40053;DHT22;25758;48.200;16.338;2023-02-12T00:44:29;6.40;99.90
40053;DHT22;25758;48.200;16.338;2023-02-12T00:46:55;6.40;99.90
40053;DHT22;25758;48.200;16.338;2023-02-12T00:49:22;6.40;99.90
40053;DHT22;25758;48.200;16.338;2023-02-12T00:51:48;6.40;99.90
40053;DHT22;25758;48.200;16.338;2023-02-12T00:54:14;6.40;99.90
40053;DHT22;25758;48.200;16.338;2023-02-12T00:56:39;6.40;99.90
40053;DHT22;25758;48.200;16.338;2023-02-12T00:59:05;6.40;99.90
40053;DHT22;25758;48.200;16.338;2023-02-12T01:01:31;6.40;99.90
40053;DHT22;25758;48.200;16.338;2023-02-12T01:03:57;6.40;99.90
40053;DHT22;25758;48.200;16.338;2023-02-12T01:06:23;6.40;99.90
40053;DHT22;25758;48.200;16.338;2023-02-12T01:08:52;6.40;99.90
40053;DHT22;25758;48.200;16.338;2023-02-12T01:11:18;6.40;99.90
40053;DHT22;25758;48.200;16.338;2023-02-12T01:13:44;6.30;99.90
40053;DHT22;25758;48.200;16.338;2023-02-12T01:16:21;6.40;99.90
40053;DHT22;25758;48.200;16.338;2023-02-12T01:18:48;6.40;99.90
40053;DHT22;25758;48.200;16.338;2023-02-12T01:21:26;6.40;99.90
40053;DHT22;25758;48.200;16.338;2023-02-12T01:23:52;6.40;99.90
40053;DHT22;25758;48.200;16.338;2023-02-12T01:26:19;6.50;99.90
40053;DHT22;25758;48.200;16.338;2023-02-12T01:28:49;6.50;99.90
40053;DHT22;25758;48.200;16.338;2023-02-12T01:31:20;6.40;99.90
40053;DHT22;25758;48.200;16.338;2023-02-12T01:33:47;6.50;99.90
40053;DHT22;25758;48.200;16.338;2023-02-12T01:36:13;6.50;99.90
40053;DHT22;25758;48.200;16.338;2023-02-12T01:38:39;6.50;99.90
40053;DHT22;25758;48.200;16.338;2023-02-12T01:41:14;6.50;99.90
40053;DHT22;25758;48.200;16.338;2023-02-12T01:43:40;6.50;99.90
40053;DHT22;25758;48.200;16.338;2023-02-12T01:46:07;6.40;99.90
40053;DHT22;25758;48.200;16.338;2023-02-12T01:48:40;6.40;99.90
40053;DHT22;25758;48.200;16.338;2023-02-12T01:51:08;6.40;99.90
40053;DHT22;25758;48.200;16.338;2023-02-12T01:53:39;6.40;99.90
40053;DHT22;25758;48.200;16.338;2023-02-12T01:56:07;6.40;99.90
40053;DHT22;25758;48.200;16.338;2023-02-12T01:58:38;6.40;99.90
40053;DHT22;25758;48.200;16.338;2023-02-12T02:01:08;6.50;99.90
40053;DHT22;25758;48.200;16.338;2023-02-12T02:03:37;6.40;99.90
40053;DHT22;25758;48.200;16.338;2023-02-12T02:06:57;6.40;99.90
40053;DHT22;25758;48.200;16.338;2023-02-12T02:09:22;6.40;99.90
40053;DHT22;25758;48.200;16.338;2023-02-12T02:11:48;6.40;99.90
40053;DHT22;25758;48.200;16.338;2023-02-12T02:14:32;6.40;99.90
40053;DHT22;25758;48.200;16.338;2023-02-12T02:27:51;6.40;99.90
40053;DHT22;25758;48.200;16.338;2023-02-12T02:30:33;6.40;99.90
40053;DHT22;25758;48.200;16.338;2023-02-12T02:38:38;6.30;99.90
40053;DHT22;25758;48.200;16.338;2023-02-12T02:41:16;6.40;99.90
40053;DHT22;25758;48.200;16.338;2023-02-12T02:43:51;6.30;99.90
40053;DHT22;25758;48.200;16.338;2023-02-12T02:46:31;6.30;99.90
40053;DHT22;25758;48.200;16.338;2023-02-12T02:49:07;6.30;99.90
40053;DHT22;25758;48.200;16.338;2023-02-12T02:51:40;6.30;99.90
40053;DHT22;25758;48.200;16.338;2023-02-12T02:56:38;6.30;99.90
40053;DHT22;25758;48.200;16.338;2023-02-12T02:59:10;6.30;99.90
40053;DHT22;25758;48.200;16.338;2023-02-12T03:01:53;6.30;99.90
40053;DHT22;25758;48.200;16.338;2023-02-12T03:04:53;6.30;99.90
40053;DHT22;25758;48.200;16.338;2023-02-12T03:10:33;6.30;99.90
40053;DHT22;25758;48.200;16.338;2023-02-12T03:12:54;6.30;99.90
40053;DHT22;25758;48.200;16.338;2023-02-12T03:15:41;6.30;99.90
40053;DHT22;25758;48.200;16.338;2023-02-12T03:18:12;6.30;99.90
40053;DHT22;25758;48.200;16.338;2023-02-12T03:20:46;6.30;99.90
40053;DHT22;25758;48.200;16.338;2023-02-12T03:23:17;6.20;99.90
40053;DHT22;25758;48.200;16.338;2023-02-12T03:25:56;6.20;99.90
40053;DHT22;25758;48.200;16.338;2023-02-12T03:28:30;6.20;99.90
40053;DHT22;25758;48.200;16.338;2023-02-12T03:34:12;6.20;99.90
40053;DHT22;25758;48.200;16.338;2023-02-12T03:37:02;6.10;99.90
40053;DHT22;25758;48.200;16.338;2023-02-12T03:42:15;6.10;99.90
40053;DHT22;25758;48.200;16.338;2023-02-12T03:44:55;6.10;99.90
40053;DHT22;25758;48.200;16.338;2023-02-12T03:52:16;6.10;99.90
40053;DHT22;25758;48.200;16.338;2023-02-12T03:54:42;6.00;99.90
40053;DHT22;25758;48.200;16.338;2023-02-12T03:57:13;6.00;99.90
40053;DHT22;25758;48.200;16.338;2023-02-12T03:59:40;6.00;99.90
40053;DHT22;25758;48.200;16.338;2023-02-12T04:02:07;6.00;99.90
40053;DHT22;25758;48.200;16.338;2023-02-12T04:04:33;6.00;99.90
40053;DHT22;25758;48.200;16.338;2023-02-12T04:06:59;6.00;99.90
40053;DHT22;25758;48.200;16.338;2023-02-12T04:09:26;6.00;99.90
40053;DHT22;25758;48.200;16.338;2023-02-12T04:12:23;6.00;99.90
40053;DHT22;25758;48.200;16.338;2023-02-12T04:18:08;6.00;99.90
40053;DHT22;25758;48.200;16.338;2023-02-12T04:23:55;6.00;99.90
40053;DHT22;25758;48.200;16.338;2023-02-12T04:26:45;6.00;99.90
40053;DHT22;25758;48.200;16.338;2023-02-12T04:32:14;6.00;99.90
40053;DHT22;25758;48.200;16.338;2023-02-12T04:37:58;6.10;99.90
40053;DHT22;25758;48.200;16.338;2023-02-12T04:40:26;6.10;99.90
40053;DHT22;25758;48.200;16.338;2023-02-12T04:42:53;6.00;99.90
40053;DHT22;25758;48.200;16.338;2023-02-12T04:45:25;6.00;99.90
40053;DHT22;25758;48.200;16.338;2023-02-12T04:47:51;6.00;99.90
40053;DHT22;25758;48.200;16.338;2023-02-12T04:50:17;6.10;99.90
40053;DHT22;25758;48.200;16.338;2023-02-12T04:52:43;6.00;99.90
40053;DHT22;25758;48.200;16.338;2023-02-12T04:55:09;6.10;99.90
40053;DHT22;25758;48.200;16.338;2023-02-12T04:57:35;6.00;99.90
40053;DHT22;25758;48.200;16.338;2023-02-12T05:00:00;6.00;99.90
40053;DHT22;25758;48.200;16.338;2023-02-12T05:02:26;6.00;99.90
40053;DHT22;25758;48.200;16.338;2023-02-12T05:04:52;6.00;99.90
40053;DHT22;25758;48.200;16.338;2023-02-12T05:07:17;6.00;99.90
40053;DHT22;25758;48.200;16.338;2023-02-12T05:09:43;6.10;99.90
40053;DHT22;25758;48.200;16.338;2023-02-12T05:12:09;6.00;99.90
40053;DHT22;25758;48.200;16.338;2023-02-12T05:14:34;6.00;99.90
40053;DHT22;25758;48.200;16.338;2023-02-12T05:17:00;6.10;99.90
40053;DHT22;25758;48.200;16.338;2023-02-12T05:19:26;6.10;99.90
40053;DHT22;25758;48.200;16.338;2023-02-12T05:21:51;6.10;99.90
40053;DHT22;25758;48.200;16.338;2023-02-12T05:24:17;6.10;99.90
40053;DHT22;25758;48.200;16.338;2023-02-12T05:26:43;6.00;99.90
40053;DHT22;25758;48.200;16.338;2023-02-12T05:29:09;6.10;99.90
40053;DHT22;25758;48.200;16.338;2023-02-12T05:31:34;6.00;99.90
40053;DHT22;25758;48.200;16.338;2023-02-12T05:34:00;6.00;99.90
40053;DHT22;25758;48.200;16.338;2023-02-12T05:36:26;6.00;99.90
40053;DHT22;25758;48.200;16.338;2023-02-12T05:38:55;6.00;99.90
40053;DHT22;25758;48.200;16.338;2023-02-12T05:41:22;6.00;99.90
40053;DHT22;25758;48.200;16.338;2023-02-12T05:43:49;6.00;99.90
40053;DHT22;25758;48.200;16.338;2023-02-12T05:46:16;6.00;99.90
40053;DHT22;25758;48.200;16.338;2023-02-12T05:48:41;6.00;99.90
40053;DHT22;25758;48.200;16.338;2023-02-12T05:51:15;6.10;99.90
40053;DHT22;25758;48.200;16.338;2023-02-12T05:53:41;6.00;99.90
40053;DHT22;25758;48.200;16.338;2023-02-12T05:56:09;6.00;99.90
40053;DHT22;25758;48.200;16.338;2023-02-12T05:58:35;6.00;99.90
40053;DHT22;25758;48.200;16.338;2023-02-12T06:01:01;5.90;99.90
40053;DHT22;25758;48.200;16.338;2023-02-12T06:03:27;6.00;99.90
40053;DHT22;25758;48.200;16.338;2023-02-12T06:05:52;6.00;99.90
40053;DHT22;25758;48.200;16.338;2023-02-12T06:08:18;6.00;99.90
40053;DHT22;25758;48.200;16.338;2023-02-12T06:10:44;6.00;99.90
40053;DHT22;25758;48.200;16.338;2023-02-12T06:13:09;6.10;99.90
40053;DHT22;25758;48.200;16.338;2023-02-12T06:15:35;6.10;99.90
40053;DHT22;25758;48.200;16.338;2023-02-12T06:18:01;6.10;99.90
40053;DHT22;25758;48.200;16.338;2023-02-12T06:20:27;6.00;99.90
40053;DHT22;25758;48.200;16.338;2023-02-12T06:22:52;6.10;99.90
40053;DHT22;25758;48.200;16.338;2023-02-12T06:25:18;6.00;99.90
40053;DHT22;25758;48.200;16.338;2023-02-12T06:27:44;6.00;99.90
40053;DHT22;25758;48.200;16.338;2023-02-12T06:30:10;6.00;99.90
40053;DHT22;25758;48.200;16.338;2023-02-12T06:32:35;6.10;99.90
40053;DHT22;25758;48.200;16.338;2023-02-12T06:35:01;6.10;99.90
40053;DHT22;25758;48.200;16.338;2023-02-12T06:37:27;6.10;99.90
40053;DHT22;25758;48.200;16.338;2023-02-12T06:39:52;6.10;99.90
40053;DHT22;25758;48.200;16.338;2023-02-12T06:42:18;6.10;99.90
40053;DHT22;25758;48.200;16.338;2023-02-12T06:44:44;6.20;99.90
40053;DHT22;25758;48.200;16.338;2023-02-12T06:47:11;6.10;99.90
40053;DHT22;25758;48.200;16.338;2023-02-12T06:49:36;6.10;99.90
40053;DHT22;25758;48.200;16.338;2023-02-12T06:52:02;6.10;99.90
40053;DHT22;25758;48.200;16.338;2023-02-12T06:54:28;6.20;99.90
40053;DHT22;25758;48.200;16.338;2023-02-12T06:56:54;6.20;99.90
40053;DHT22;25758;48.200;16.338;2023-02-12T06:59:19;6.20;99.90
40053;DHT22;25758;48.200;16.338;2023-02-12T07:01:45;6.20;99.90
40053;DHT22;25758;48.200;16.338;2023-02-12T07:04:11;6.20;99.90
40053;DHT22;25758;48.200;16.338;2023-02-12T07:06:37;6.20;99.90
40053;DHT22;25758;48.200;16.338;2023-02-12T07:09:03;6.20;99.90
40053;DHT22;25758;48.200;16.338;2023-02-12T07:11:31;6.20;99.90
40053;DHT22;25758;48.200;16.338;2023-02-12T07:13:57;6.20;99.90
40053;DHT22;25758;48.200;16.338;2023-02-12T07:16:23;6.10;99.90
40053;DHT22;25758;48.200;16.338;2023-02-12T07:18:49;6.20;99.90
40053;DHT22;25758;48.200;16.338;2023-02-12T07:21:16;6.20;99.90
40053;DHT22;25758;48.200;16.338;2023-02-12T07:23:46;6.20;99.90
40053;DHT22;25758;48.200;16.338;2023-02-12T07:26:13;6.20;99.90
40053;DHT22;25758;48.200;16.338;2023-02-12T07:28:40;6.20;99.90
40053;DHT22;25758;48.200;16.338;2023-02-12T07:31:13;6.20;99.90
40053;DHT22;25758;48.200;16.338;2023-02-12T07:33:40;6.20;99.90
40053;DHT22;25758;48.200;16.338;2023-02-12T07:36:14;6.20;99.90
40053;DHT22;25758;48.200;16.338;2023-02-12T07:38:46;6.30;99.90
40053;DHT22;25758;48.200;16.338;2023-02-12T07:41:24;6.30;99.90
40053;DHT22;25758;48.200;16.338;2023-02-12T07:44:00;6.30;99.90
40053;DHT22;25758;48.200;16.338;2023-02-12T07:46:30;6.30;99.90
40053;DHT22;25758;48.200;16.338;2023-02-12T07:48:58;6.40;99.90
40053;DHT22;25758;48.200;16.338;2023-02-12T07:51:24;6.40;99.90
40053;DHT22;25758;48.200;16.338;2023-02-12T07:53:50;6.40;99.90
40053;DHT22;25758;48.200;16.338;2023-02-12T07:56:22;6.40;99.90
40053;DHT22;25758;48.200;16.338;2023-02-12T07:58:50;6.40;99.90
40053;DHT22;25758;48.200;16.338;2023-02-12T08:01:20;6.50;99.90
40053;DHT22;25758;48.200;16.338;2023-02-12T08:03:47;6.40;99.90
40053;DHT22;25758;48.200;16.338;2023-02-12T08:06:19;6.50;99.90
40053;DHT22;25758;48.200;16.338;2023-02-12T08:08:45;6.50;99.90
40053;DHT22;25758;48.200;16.338;2023-02-12T08:11:13;6.50;99.90
40053;DHT22;25758;48.200;16.338;2023-02-12T08:13:39;6.60;99.90
40053;DHT22;25758;48.200;16.338;2023-02-12T08:16:13;6.60;99.90
40053;DHT22;25758;48.200;16.338;2023-02-12T08:18:39;6.60;99.90
40053;DHT22;25758;48.200;16.338;2023-02-12T08:21:14;6.60;99.90
40053;DHT22;25758;48.200;16.338;2023-02-12T08:23:41;6.60;99.90
40053;DHT22;25758;48.200;16.338;2023-02-12T08:26:31;6.60;99.90
40053;DHT22;25758;48.200;16.338;2023-02-12T08:31:31;6.70;99.90
40053;DHT22;25758;48.200;16.338;2023-02-12T08:33:57;6.80;99.90
40053;DHT22;25758;48.200;16.338;2023-02-12T08:36:38;6.90;99.90
40053;DHT22;25758;48.200;16.338;2023-02-12T08:39:05;7.10;99.90
40053;DHT22;25758;48.200;16.338;2023-02-12T08:41:31;7.10;99.90
40053;DHT22;25758;48.200;16.338;2023-02-12T08:43:59;7.20;99.90
40053;DHT22;25758;48.200;16.338;2023-02-12T08:46:27;7.30;99.90
40053;DHT22;25758;48.200;16.338;2023-02-12T08:48:55;7.30;99.90
40053;DHT22;25758;48.200;16.338;2023-02-12T08:51:23;7.40;99.90
40053;DHT22;25758;48.200;16.338;2023-02-12T08:53:55;7.40;99.90
40053;DHT22;25758;48.200;16.338;2023-02-12T08:56:22;7.40;99.90
40053;DHT22;25758;48.200;16.338;2023-02-12T08:58:48;7.50;99.90
40053;DHT22;25758;48.200;16.338;2023-02-12T09:01:19;7.50;99.90
40053;DHT22;25758;48.200;16.338;2023-02-12T09:03:46;7.60;99.90
40053;DHT22;25758;48.200;16.338;2023-02-12T09:06:14;7.60;99.90
40053;DHT22;25758;48.200;16.338;2023-02-12T09:08:41;7.60;99.90
40053;DHT22;25758;48.200;16.338;2023-02-12T09:11:09;7.70;99.90
40053;DHT22;25758;48.200;16.338;2023-02-12T09:13:35;7.70;99.90
40053;DHT22;25758;48.200;16.338;2023-02-12T09:16:02;7.80;99.90
40053;DHT22;25758;48.200;16.338;2023-02-12T09:18:28;7.90;99.90
40053;DHT22;25758;48.200;16.338;2023-02-12T09:20:54;7.90;99.90
40053;DHT22;25758;48.200;16.338;2023-02-12T09:23:24;8.00;99.90
40053;DHT22;25758;48.200;16.338;2023-02-12T09:25:50;8.10;99.90
40053;DHT22;25758;48.200;16.338;2023-02-12T09:28:15;8.20;99.90
40053;DHT22;25758;48.200;16.338;2023-02-12T09:30:41;8.30;99.90
40053;DHT22;25758;48.200;16.338;2023-02-12T09:33:08;8.60;99.90
40053;DHT22;25758;48.200;16.338;2023-02-12T09:35:35;8.70;99.90
40053;DHT22;25758;48.200;16.338;2023-02-12T09:38:01;8.80;99.90
40053;DHT22;25758;48.200;16.338;2023-02-12T09:46:32;9.30;99.90
40053;DHT22;25758;48.200;16.338;2023-02-12T09:49:11;9.50;99.90
40053;DHT22;25758;48.200;16.338;2023-02-12T09:51:43;9.80;99.90
40053;DHT22;25758;48.200;16.338;2023-02-12T09:54:19;10.10;99.90
40053;DHT22;25758;48.200;16.338;2023-02-12T09:56:49;10.40;99.90
40053;DHT22;25758;48.200;16.338;2023-02-12T09:59:34;10.70;99.90
40053;DHT22;25758;48.200;16.338;2023-02-12T10:02:00;10.90;99.90
40053;DHT22;25758;48.200;16.338;2023-02-12T10:04:27;11.20;99.90
40053;DHT22;25758;48.200;16.338;2023-02-12T10:18:03;12.10;99.90
40053;DHT22;25758;48.200;16.338;2023-02-12T10:25:55;13.10;99.90
40053;DHT22;25758;48.200;16.338;2023-02-12T10:28:32;13.50;99.90
40053;DHT22;25758;48.200;16.338;2023-02-12T10:31:06;13.80;99.90
40053;DHT22;25758;48.200;16.338;2023-02-12T10:33:43;14.20;99.90
40053;DHT22;25758;48.200;16.338;2023-02-12T10:41:42;15.20;97.30
40053;DHT22;25758;48.200;16.338;2023-02-12T10:44:10;15.70;96.60
40053;DHT22;25758;48.200;16.338;2023-02-12T10:46:36;16.10;96.70
40053;DHT22;25758;48.200;16.338;2023-02-12T10:49:02;16.40;95.50
40053;DHT22;25758;48.200;16.338;2023-02-12T10:51:49;16.50;94.70
40053;DHT22;25758;48.200;16.338;2023-02-12T10:54:34;16.60;93.90
40053;DHT22;25758;48.200;16.338;2023-02-12T10:57:25;16.70;93.20
40053;DHT22;25758;48.200;16.338;2023-02-12T10:59:54;16.60;92.30
40053;DHT22;25758;48.200;16.338;2023-02-12T11:02:31;16.80;91.80
40053;DHT22;25758;48.200;16.338;2023-02-12T11:04:58;16.90;91.70
40053;DHT22;25758;48.200;16.338;2023-02-12T11:07:25;17.10;90.80
40053;DHT22;25758;48.200;16.338;2023-02-12T11:09:54;17.10;90.20
40053;DHT22;25758;48.200;16.338;2023-02-12T11:12:30;17.70;90.90
40053;DHT22;25758;48.200;16.338;2023-02-12T11:14:59;18.10;88.40
40053;DHT22;25758;48.200;16.338;2023-02-12T11:17:26;18.50;87.80
40053;DHT22;25758;48.200;16.338;2023-02-12T11:23:05;18.80;84.70
40053;DHT22;25758;48.200;16.338;2023-02-12T11:25:34;18.80;81.40
40053;DHT22;25758;48.200;16.338;2023-02-12T11:28:17;18.60;80.60
40053;DHT22;25758;48.200;16.338;2023-02-12T11:35:59;17.90;80.80
40053;DHT22;25758;48.200;16.338;2023-02-12T11:38:36;17.70;82.60
40053;DHT22;25758;48.200;16.338;2023-02-12T11:41:23;17.80;81.80
40053;DHT22;25758;48.200;16.338;2023-02-12T11:43:51;18.00;82.50
40053;DHT22;25758;48.200;16.338;2023-02-12T11:46:23;18.10;81.20
40053;DHT22;25758;48.200;16.338;2023-02-12T11:48:50;18.50;80.90
40053;DHT22;25758;48.200;16.338;2023-02-12T11:51:29;18.20;79.50
40053;DHT22;25758;48.200;16.338;2023-02-12T11:53:58;18.10;79.00
40053;DHT22;25758;48.200;16.338;2023-02-12T11:56:42;18.00;79.90
40053;DHT22;25758;48.200;16.338;2023-02-12T11:59:30;17.70;80.40
40053;DHT22;25758;48.200;16.338;2023-02-12T12:01:59;17.40;81.00
40053;DHT22;25758;48.200;16.338;2023-02-12T12:04:27;17.10;81.60
40053;DHT22;25758;48.200;16.338;2023-02-12T12:07:13;16.80;82.10
40053;DHT22;25758;48.200;16.338;2023-02-12T12:09:55;16.40;82.80
40053;DHT22;25758;48.200;16.338;2023-02-12T12:12:28;16.20;83.90
40053;DHT22;25758;48.200;16.338;2023-02-12T12:15:06;15.80;84.50
40053;DHT22;25758;48.200;16.338;2023-02-12T12:17:59;15.40;85.60
40053;DHT22;25758;48.200;16.338;2023-02-12T12:21:08;15.00;87.70
40053;DHT22;25758;48.200;16.338;2023-02-12T12:23:48;14.50;90.00
40053;DHT22;25758;48.200;16.338;2023-02-12T12:26:22;14.10;90.60
40053;DHT22;25758;48.200;16.338;2023-02-12T12:31:34;14.10;91.30
40053;DHT22;25758;48.200;16.338;2023-02-12T12:34:16;14.00;91.40
40053;DHT22;25758;48.200;16.338;2023-02-12T12:42:45;13.50;92.70
40053;DHT22;25758;48.200;16.338;2023-02-12T13:10:54;12.60;96.20
40053;DHT22;25758;48.200;16.338;2023-02-12T13:13:41;12.70;95.50
40053;DHT22;25758;48.200;16.338;2023-02-12T13:24:02;12.10;96.80
40053;DHT22;25758;48.200;16.338;2023-02-12T13:29:28;11.80;97.90
40053;DHT22;25758;48.200;16.338;2023-02-12T13:32:00;11.70;98.70
40053;DHT22;25758;48.200;16.338;2023-02-12T13:34:30;11.60;99.10
40053;DHT22;25758;48.200;16.338;2023-02-12T13:37:03;11.50;99.70
40053;DHT22;25758;48.200;16.338;2023-02-12T13:44:46;11.20;99.90
40053;DHT22;25758;48.200;16.338;2023-02-12T13:57:42;10.90;99.90
40053;DHT22;25758;48.200;16.338;2023-02-12T14:03:15;10.80;99.90
40053;DHT22;25758;48.200;16.338;2023-02-12T14:05:41;10.70;99.90
40053;DHT22;25758;48.200;16.338;2023-02-12T14:08:34;10.60;99.90
40053;DHT22;25758;48.200;16.338;2023-02-12T14:11:08;10.60;99.90
40053;DHT22;25758;48.200;16.338;2023-02-12T14:14:00;10.50;99.90
40053;DHT22;25758;48.200;16.338;2023-02-12T14:21:58;10.40;99.90
40053;DHT22;25758;48.200;16.338;2023-02-12T14:27:05;10.40;99.90
40053;DHT22;25758;48.200;16.338;2023-02-12T14:38:02;10.40;99.90
40053;DHT22;25758;48.200;16.338;2023-02-12T14:43:35;10.30;99.90
40053;DHT22;25758;48.200;16.338;2023-02-12T14:48:51;10.30;99.90
40053;DHT22;25758;48.200;16.338;2023-02-12T14:54:01;10.30;99.90
40053;DHT22;25758;48.200;16.338;2023-02-12T14:56:45;10.20;99.90
40053;DHT22;25758;48.200;16.338;2023-02-12T14:59:17;10.00;99.90
40053;DHT22;25758;48.200;16.338;2023-02-12T15:01:45;10.00;99.90
40053;DHT22;25758;48.200;16.338;2023-02-12T15:04:23;10.00;99.90
40053;DHT22;25758;48.200;16.338;2023-02-12T15:07:11;9.90;99.90
40053;DHT22;25758;48.200;16.338;2023-02-12T15:09:50;9.80;99.90
40053;DHT22;25758;48.200;16.338;2023-02-12T15:12:25;9.70;99.90
40053;DHT22;25758;48.200;16.338;2023-02-12T15:17:57;9.60;99.90
40053;DHT22;25758;48.200;16.338;2023-02-12T15:20:58;9.60;99.90
40053;DHT22;25758;48.200;16.338;2023-02-12T15:23:33;9.50;99.90
40053;DHT22;25758;48.200;16.338;2023-02-12T15:26:00;9.50;99.90
40053;DHT22;25758;48.200;16.338;2023-02-12T15:28:32;9.40;99.90
40053;DHT22;25758;48.200;16.338;2023-02-12T15:31:04;9.40;99.90
40053;DHT22;25758;48.200;16.338;2023-02-12T15:33:39;9.30;99.90
40053;DHT22;25758;48.200;16.338;2023-02-12T15:36:08;9.20;99.90
40053;DHT22;25758;48.200;16.338;2023-02-12T15:38:40;9.20;99.90
40053;DHT22;25758;48.200;16.338;2023-02-12T15:41:07;9.20;99.90
40053;DHT22;25758;48.200;16.338;2023-02-12T15:43:39;9.10;99.90
40053;DHT22;25758;48.200;16.338;2023-02-12T15:46:12;9.10;99.90
40053;DHT22;25758;48.200;16.338;2023-02-12T15:48:39;9.10;99.90
40053;DHT22;25758;48.200;16.338;2023-02-12T15:51:16;9.10;99.90
40053;DHT22;25758;48.200;16.338;2023-02-12T15:53:43;9.00;99.90
40053;DHT22;25758;48.200;16.338;2023-02-12T15:56:13;9.00;99.90
40053;DHT22;25758;48.200;16.338;2023-02-12T15:58:49;9.00;99.90
40053;DHT22;25758;48.200;16.338;2023-02-12T16:01:19;9.00;99.90
40053;DHT22;25758;48.200;16.338;2023-02-12T16:03:55;8.90;99.90
40053;DHT22;25758;48.200;16.338;2023-02-12T16:06:24;8.90;99.90
40053;DHT22;25758;48.200;16.338;2023-02-12T16:09:02;8.90;99.90
40053;DHT22;25758;48.200;16.338;2023-02-12T16:11:29;8.80;99.90
40053;DHT22;25758;48.200;16.338;2023-02-12T16:14:02;8.80;99.90
40053;DHT22;25758;48.200;16.338;2023-02-12T16:16:40;8.70;99.90
40053;DHT22;25758;48.200;16.338;2023-02-12T16:21:45;8.70;99.90
40053;DHT22;25758;48.200;16.338;2023-02-12T16:27:17;8.70;99.90
40053;DHT22;25758;48.200;16.338;2023-02-12T16:29:51;8.60;99.90
40053;DHT22;25758;48.200;16.338;2023-02-12T16:32:36;8.70;99.90
40053;DHT22;25758;48.200;16.338;2023-02-12T16:45:40;8.50;99.90
40053;DHT22;25758;48.200;16.338;2023-02-12T16:48:15;8.50;99.90
40053;DHT22;25758;48.200;16.338;2023-02-12T16:50:52;8.50;99.90
40053;DHT22;25758;48.200;16.338;2023-02-12T16:53:30;8.50;99.90
40053;DHT22;25758;48.200;16.338;2023-02-12T16:56:03;8.50;99.90
40053;DHT22;25758;48.200;16.338;2023-02-12T16:58:29;8.50;99.90
40053;DHT22;25758;48.200;16.338;2023-02-12T17:00:56;8.50;99.90
40053;DHT22;25758;48.200;16.338;2023-02-12T17:03:23;8.50;99.90
40053;DHT22;25758;48.200;16.338;2023-02-12T17:05:50;8.40;99.90
40053;DHT22;25758;48.200;16.338;2023-02-12T17:08:20;8.40;99.90
40053;DHT22;25758;48.200;16.338;2023-02-12T17:10:47;8.40;99.90
40053;DHT22;25758;48.200;16.338;2023-02-12T17:13:14;8.30;99.90
40053;DHT22;25758;48.200;16.338;2023-02-12T17:15:51;8.30;99.90
40053;DHT22;25758;48.200;16.338;2023-02-12T17:18:19;8.30;99.90
40053;DHT22;25758;48.200;16.338;2023-02-12T17:20:52;8.30;99.90
40053;DHT22;25758;48.200;16.338;2023-02-12T17:23:19;8.20;99.90
40053;DHT22;25758;48.200;16.338;2023-02-12T17:25:45;8.20;99.90
40053;DHT22;25758;48.200;16.338;2023-02-12T17:28:11;8.20;99.90
40053;DHT22;25758;48.200;16.338;2023-02-12T17:30:37;8.10;99.90
40053;DHT22;25758;48.200;16.338;2023-02-12T17:33:04;8.20;99.90
40053;DHT22;25758;48.200;16.338;2023-02-12T17:35:30;8.10;99.90
40053;DHT22;25758;48.200;16.338;2023-02-12T17:37:56;6.10;99.90
40053;DHT22;25758;48.200;16.338;2023-02-12T17:40:22;8.10;99.90
40053;DHT22;25758;48.200;16.338;2023-02-12T17:42:48;8.10;99.90
40053;DHT22;25758;48.200;16.338;2023-02-12T17:45:16;8.10;99.90
40053;DHT22;25758;48.200;16.338;2023-02-12T17:47:42;8.00;99.90
40053;DHT22;25758;48.200;16.338;2023-02-12T17:50:12;8.00;99.90
40053;DHT22;25758;48.200;16.338;2023-02-12T17:52:38;8.00;99.90
40053;DHT22;25758;48.200;16.338;2023-02-12T17:55:05;8.00;99.90
40053;DHT22;25758;48.200;16.338;2023-02-12T17:57:31;8.00;99.90
40053;DHT22;25758;48.200;16.338;2023-02-12T17:59:58;8.00;99.90
40053;DHT22;25758;48.200;16.338;2023-02-12T18:02:25;8.00;99.90
40053;DHT22;25758;48.200;16.338;2023-02-12T18:04:57;7.90;99.90
40053;DHT22;25758;48.200;16.338;2023-02-12T18:07:25;7.90;99.90
40053;DHT22;25758;48.200;16.338;2023-02-12T18:09:51;7.90;99.90
40053;DHT22;25758;48.200;16.338;2023-02-12T18:12:17;7.90;99.90
40053;DHT22;25758;48.200;16.338;2023-02-12T18:14:43;7.90;99.90
40053;DHT22;25758;48.200;16.338;2023-02-12T18:17:09;7.90;99.90
40053;DHT22;25758;48.200;16.338;2023-02-12T18:19:36;7.90;99.90
40053;DHT22;25758;48.200;16.338;2023-02-12T18:22:02;7.90;99.90
40053;DHT22;25758;48.200;16.338;2023-02-12T18:24:28;7.90;99.90
40053;DHT22;25758;48.200;16.338;2023-02-12T18:26:56;7.80;99.90
40053;DHT22;25758;48.200;16.338;2023-02-12T18:29:22;7.80;99.90
40053;DHT22;25758;48.200;16.338;2023-02-12T18:31:48;7.90;99.90
40053;DHT22;25758;48.200;16.338;2023-02-12T18:34:14;7.80;99.90
40053;DHT22;25758;48.200;16.338;2023-02-12T18:36:40;7.80;99.90
40053;DHT22;25758;48.200;16.338;2023-02-12T18:39:06;7.80;99.90
40053;DHT22;25758;48.200;16.338;2023-02-12T18:41:33;7.80;99.90
40053;DHT22;25758;48.200;16.338;2023-02-12T18:44:00;7.80;99.90
40053;DHT22;25758;48.200;16.338;2023-02-12T18:46:29;7.80;99.90
40053;DHT22;25758;48.200;16.338;2023-02-12T18:48:56;7.70;99.90
40053;DHT22;25758;48.200;16.338;2023-02-12T18:51:24;7.70;99.90
40053;DHT22;25758;48.200;16.338;2023-02-12T18:54:02;7.70;99.90
40053;DHT22;25758;48.200;16.338;2023-02-12T18:56:30;7.80;99.90
40053;DHT22;25758;48.200;16.338;2023-02-12T18:59:01;7.80;99.90